Helmer, Indiana
Current Conditions -  °F | °C
As of 4:15 PM on Saturday 25 Oct 2014 (Local Time) from KANQ Reporting Station
NA  
Wind Chill: 68°   Ceiling: NA
Heat Index: 68°   Visibility: NA
Dew Point: 41°   Wind: 16mph
Humidity: 37%   Direction: 290°WNW
Pressure: 29.84"   Gusts: NA
Location:  41.5628°N, 85.1391°W
Report Text: KANQ 252015Z AUTO 29014KT 20/05 A2984 RMK
Loading
Personal Weather Stations






























Interactive Weather Map
Tropical Storm Tracking
New forecast layout! Learn more

10-Day Weather Forecast

Advertisements
Track Severe Weather on mobile